createdAt,value
2022-12-01T00:01:06.350Z,-1.05
2022-12-01T00:03:33.623Z,-0.84
2022-12-01T00:06:10.133Z,-0.83
2022-12-01T00:08:37.190Z,-0.76
2022-12-01T00:11:10.488Z,-0.91
2022-12-01T00:13:37.746Z,-0.79
2022-12-01T00:16:17.377Z,-0.67
2022-12-01T00:18:44.475Z,-0.62
2022-12-01T00:21:15.461Z,-0.74
2022-12-01T00:23:50.597Z,-0.84
2022-12-01T00:26:18.483Z,-0.85
2022-12-01T00:28:49.965Z,-0.75
2022-12-01T00:31:16.323Z,-0.66
2022-12-01T00:33:42.878Z,-0.78
2022-12-01T00:36:09.724Z,-0.71
2022-12-01T00:38:37.253Z,-0.76
2022-12-01T00:41:04.412Z,-0.67
2022-12-01T00:43:31.030Z,-0.59
2022-12-01T00:45:57.537Z,-0.73
2022-12-01T00:48:24.445Z,-0.65
2022-12-01T00:50:54.821Z,-0.55
2022-12-01T00:53:21.645Z,-0.59
2022-12-01T00:55:48.216Z,-0.67
2022-12-01T00:58:14.803Z,-0.66
2022-12-01T01:00:42.921Z,-0.74
2022-12-01T01:03:10.782Z,-0.62
2022-12-01T01:05:39.172Z,-0.76
2022-12-01T01:08:10.656Z,-0.96
2022-12-01T01:10:40.529Z,-0.88
2022-12-01T01:13:07.053Z,-1.05
2022-12-01T01:15:34.037Z,-1.14
2022-12-01T01:18:00.990Z,-0.94
2022-12-01T01:20:27.544Z,-0.98
2022-12-01T01:22:53.999Z,-0.74
2022-12-01T01:25:20.504Z,-0.73
2022-12-01T01:27:46.957Z,-0.77
2022-12-01T01:30:13.769Z,-0.63
2022-12-01T01:32:40.299Z,-0.72
2022-12-01T01:35:07.361Z,-0.80
2022-12-01T01:37:33.896Z,-0.93
2022-12-01T01:40:00.315Z,-1.18
2022-12-01T01:42:26.798Z,-1.19
2022-12-01T01:44:56.271Z,-1.35
2022-12-01T01:47:28.323Z,-1.26
2022-12-01T01:49:57.465Z,-1.27
2022-12-01T01:52:24.622Z,-1.40
2022-12-01T01:54:55.249Z,-1.50
2022-12-01T01:57:29.109Z,-1.34
2022-12-01T02:00:01.516Z,-1.18
2022-12-01T02:02:28.083Z,-1.24
2022-12-01T02:08:28.676Z,-1.32
2022-12-01T02:11:00.814Z,-1.16
2022-12-01T02:13:44.543Z,-1.13
2022-12-01T02:16:52.538Z,-1.25
2022-12-01T02:19:52.247Z,-1.40
2022-12-01T02:22:30.352Z,-1.56
2022-12-01T02:25:19.877Z,-1.35
2022-12-01T02:28:02.944Z,-1.30
2022-12-01T02:30:35.318Z,-1.58
2022-12-01T02:33:11.916Z,-1.69
2022-12-01T02:35:50.394Z,-1.75
2022-12-01T02:38:29.673Z,-1.64
2022-12-01T02:41:16.678Z,-1.65
2022-12-01T02:44:20.170Z,-1.55
2022-12-01T02:47:12.012Z,-1.61
2022-12-01T02:49:50.635Z,-1.54
2022-12-01T02:52:18.928Z,-1.60
2022-12-01T02:54:47.079Z,-1.60
2022-12-01T02:57:15.157Z,-1.51
2022-12-01T02:59:44.582Z,-1.81
2022-12-01T03:02:19.263Z,-1.62
2022-12-01T03:05:26.613Z,-1.68
2022-12-01T03:08:29.693Z,-1.60
2022-12-01T03:10:58.390Z,-1.45
2022-12-01T03:13:51.698Z,-1.72
2022-12-01T03:16:26.298Z,-1.84
2022-12-01T03:19:00.687Z,-1.95
2022-12-01T03:21:33.648Z,-1.87
2022-12-01T03:24:08.042Z,-1.84
2022-12-01T03:26:37.584Z,-1.86
2022-12-01T03:29:09.699Z,-1.83
2022-12-01T03:31:43.366Z,-1.70
2022-12-01T03:34:18.049Z,-1.65
2022-12-01T03:36:50.147Z,-1.57
2022-12-01T03:39:25.357Z,-1.52
2022-12-01T03:42:01.127Z,-1.81
2022-12-01T03:44:43.312Z,-1.79
2022-12-01T03:47:14.682Z,-1.84
2022-12-01T03:49:41.708Z,-1.77
2022-12-01T03:52:22.437Z,-1.92
2022-12-01T03:55:05.021Z,-1.89
2022-12-01T03:58:09.603Z,-1.98
2022-12-01T04:00:36.829Z,-1.91
2022-12-01T04:03:04.817Z,-1.98
2022-12-01T04:05:33.372Z,-2.11
2022-12-01T04:08:00.209Z,-1.95
2022-12-01T04:10:26.797Z,-1.90
2022-12-01T04:12:58.987Z,-2.16
2022-12-01T04:15:27.133Z,-2.22
2022-12-01T04:17:54.114Z,-2.04
2022-12-01T04:20:20.961Z,-1.89
2022-12-01T04:22:48.606Z,-1.91
2022-12-01T04:25:15.151Z,-1.78
2022-12-01T04:27:41.863Z,-1.97
2022-12-01T04:30:09.116Z,-1.72
2022-12-01T04:32:44.380Z,-1.93
2022-12-01T04:35:12.532Z,-2.10
2022-12-01T04:37:39.682Z,-1.98
2022-12-01T04:40:07.003Z,-2.01
2022-12-01T04:42:33.534Z,-1.89
2022-12-01T04:44:59.995Z,-1.68
2022-12-01T04:47:26.455Z,-1.68
2022-12-01T04:49:53.166Z,-1.83
2022-12-01T04:52:19.600Z,-2.03
2022-12-01T04:54:46.050Z,-2.11
2022-12-01T04:57:12.556Z,-2.05
2022-12-01T04:59:39.183Z,-2.17
2022-12-01T05:02:05.788Z,-2.27
2022-12-01T05:04:33.965Z,-2.01
2022-12-01T05:07:00.500Z,-2.20
2022-12-01T05:09:26.996Z,-2.18
2022-12-01T05:11:53.615Z,-1.94
2022-12-01T05:14:20.051Z,-1.87
2022-12-01T05:16:46.904Z,-1.81
2022-12-01T05:19:31.739Z,-1.83
2022-12-01T05:21:58.212Z,-1.88
2022-12-01T05:24:24.675Z,-1.81
2022-12-01T05:26:51.117Z,-1.92
2022-12-01T05:29:17.669Z,-1.91
2022-12-01T05:31:46.191Z,-2.00
2022-12-01T05:34:12.693Z,-1.97
2022-12-01T05:36:39.105Z,-2.05
2022-12-01T05:39:05.656Z,-2.18
2022-12-01T05:41:32.222Z,-2.23
2022-12-01T05:43:58.800Z,-2.25
2022-12-01T05:46:25.359Z,-1.96
2022-12-01T05:48:51.922Z,-1.89
2022-12-01T05:51:18.420Z,-2.01
2022-12-01T05:53:44.985Z,-2.01
2022-12-01T05:56:11.444Z,-2.08
2022-12-01T05:58:44.051Z,-1.90
2022-12-01T06:01:10.879Z,-2.07
2022-12-01T06:03:37.555Z,-2.15
2022-12-01T06:06:07.332Z,-2.30
2022-12-01T06:08:36.724Z,-2.23
2022-12-01T06:11:03.437Z,-2.28
2022-12-01T06:13:30.158Z,-2.40
2022-12-01T06:16:03.046Z,-2.23
2022-12-01T06:18:37.476Z,-2.06
2022-12-01T06:21:05.896Z,-2.07
2022-12-01T06:23:32.619Z,-2.00
2022-12-01T06:26:00.557Z,-2.13
2022-12-01T06:28:30.072Z,-2.11
2022-12-01T06:31:01.279Z,-2.11
2022-12-01T06:33:29.672Z,-2.25
2022-12-01T06:36:00.514Z,-2.24
2022-12-01T06:38:33.056Z,-2.38
2022-12-01T06:41:00.364Z,-2.25
2022-12-01T06:43:27.199Z,-2.27
2022-12-01T06:45:59.461Z,-2.31
2022-12-01T06:48:28.058Z,-2.08
2022-12-01T06:51:00.396Z,-2.09
2022-12-01T06:53:28.625Z,-2.15
2022-12-01T06:56:03.828Z,-2.11
2022-12-01T06:58:32.857Z,-2.00
2022-12-01T07:01:02.891Z,-1.97
2022-12-01T07:03:32.593Z,-1.97
2022-12-01T07:06:01.174Z,-1.86
2022-12-01T07:08:32.537Z,-2.06
2022-12-01T07:11:01.136Z,-2.05
2022-12-01T07:13:33.616Z,-1.99
2022-12-01T07:16:07.210Z,-1.74
2022-12-01T07:18:40.193Z,-1.74
2022-12-01T07:21:11.947Z,-1.97
2022-12-01T07:23:38.865Z,-1.70
2022-12-01T07:26:10.305Z,-2.01
2022-12-01T07:28:36.982Z,-2.14
2022-12-01T07:31:08.485Z,-2.11
2022-12-01T07:33:40.918Z,-2.20
2022-12-01T07:36:11.924Z,-2.05
2022-12-01T07:38:39.226Z,-1.95
2022-12-01T07:41:08.095Z,-1.73
2022-12-01T07:43:35.590Z,-1.72
2022-12-01T07:46:06.473Z,-1.67
2022-12-01T07:48:33.347Z,-1.86
2022-12-01T07:50:59.964Z,-1.78
2022-12-01T07:53:29.894Z,-1.86
2022-12-01T07:55:56.719Z,-1.70
2022-12-01T07:58:26.946Z,-1.78
2022-12-01T08:01:21.381Z,-1.58
2022-12-01T08:03:55.055Z,-1.56
2022-12-01T08:06:22.771Z,-1.57
2022-12-01T08:09:19.854Z,-1.47
2022-12-01T08:12:37.051Z,-1.22
2022-12-01T08:14:37.762Z,-1.40
2022-12-01T08:17:16.663Z,-1.52
2022-12-01T08:19:52.065Z,-1.43
2022-12-01T08:22:27.000Z,-1.40
2022-12-01T08:24:53.885Z,-1.45
2022-12-01T08:27:20.793Z,-1.70
2022-12-01T08:29:47.856Z,-1.80
2022-12-01T08:32:16.151Z,-1.88
2022-12-01T08:34:43.292Z,-1.99
2022-12-01T08:37:16.365Z,-1.89
2022-12-01T08:39:43.355Z,-1.84
2022-12-01T08:42:10.370Z,-1.98
2022-12-01T08:44:36.922Z,-1.71
2022-12-01T08:47:03.495Z,-1.75
2022-12-01T08:49:30.306Z,-1.93
2022-12-01T08:51:56.916Z,-1.84
2022-12-01T08:54:23.569Z,-1.64
2022-12-01T08:56:50.354Z,-1.50
2022-12-01T08:59:17.612Z,-1.47
2022-12-01T09:01:53.609Z,-1.44
2022-12-01T09:04:26.463Z,-1.63
2022-12-01T09:07:02.516Z,-1.34
2022-12-01T09:12:35.126Z,-1.33
2022-12-01T09:15:20.638Z,-1.28
2022-12-01T09:18:08.452Z,-1.48
2022-12-01T09:20:35.391Z,-1.58
2022-12-01T09:23:04.404Z,-2.01
2022-12-01T09:25:31.085Z,-1.88
2022-12-01T09:28:13.118Z,-1.83
2022-12-01T09:30:42.105Z,-1.77
2022-12-01T09:33:09.160Z,-1.65
2022-12-01T09:35:36.455Z,-1.55
2022-12-01T09:38:12.117Z,-1.72
2022-12-01T09:40:52.628Z,-1.60
2022-12-01T09:43:40.800Z,-1.71
2022-12-01T09:46:17.372Z,-1.48
2022-12-01T09:48:56.377Z,-1.62
2022-12-01T09:51:29.048Z,-1.61
2022-12-01T09:54:03.887Z,-1.52
2022-12-01T09:56:38.453Z,-1.40
2022-12-01T09:59:12.722Z,-1.56
2022-12-01T10:02:05.115Z,-1.54
2022-12-01T10:04:55.296Z,-1.55
2022-12-01T10:07:47.841Z,-1.63
2022-12-01T10:10:20.625Z,-1.63
2022-12-01T10:12:47.447Z,-1.80
2022-12-01T10:15:32.507Z,-1.74
2022-12-01T10:18:10.451Z,-1.58
2022-12-01T10:20:48.400Z,-1.82
2022-12-01T10:23:14.947Z,-1.93
2022-12-01T10:26:10.289Z,-1.67
2022-12-01T10:29:10.554Z,-1.66
2022-12-01T10:31:58.439Z,-1.88
2022-12-01T10:34:32.268Z,-1.79
2022-12-01T10:36:59.442Z,-1.57
2022-12-01T10:39:29.482Z,-1.51
2022-12-01T10:42:29.300Z,-1.51
2022-12-01T10:44:59.119Z,-1.60
2022-12-01T10:47:26.155Z,-1.68
2022-12-01T10:49:53.352Z,-1.67
2022-12-01T10:52:37.285Z,-1.50
2022-12-01T10:55:23.456Z,-1.45
2022-12-01T10:57:51.065Z,-1.50
2022-12-01T11:00:57.454Z,-1.53
2022-12-01T11:03:21.944Z,-1.60
2022-12-01T11:05:57.619Z,-1.37
2022-12-01T11:08:46.682Z,-1.32
2022-12-01T11:11:45.429Z,-1.31
2022-12-01T11:14:21.841Z,-1.43
2022-12-01T11:16:51.947Z,-1.46
2022-12-01T11:19:26.803Z,-1.16
2022-12-01T11:21:57.870Z,-1.24
2022-12-01T11:24:42.168Z,-1.24
2022-12-01T11:27:18.601Z,-1.30
2022-12-01T11:29:49.692Z,-1.47
2022-12-01T11:32:18.438Z,-1.34
2022-12-01T11:34:52.190Z,-1.32
2022-12-01T11:37:22.159Z,-1.22
2022-12-01T11:39:51.295Z,-1.56
2022-12-01T11:42:31.174Z,-1.51
2022-12-01T11:45:27.743Z,-1.48
2022-12-01T11:48:20.558Z,-1.64
2022-12-01T11:51:05.271Z,-1.58
2022-12-01T11:53:37.973Z,-1.23
2022-12-01T11:56:19.474Z,-1.51
2022-12-01T11:58:48.315Z,-1.45
2022-12-01T12:01:51.943Z,-1.25
2022-12-01T12:04:28.058Z,-1.34
2022-12-01T12:07:19.976Z,-1.33
2022-12-01T12:09:52.688Z,-1.23
2022-12-01T12:12:48.614Z,-1.11
2022-12-01T12:15:33.488Z,-1.14
2022-12-01T12:18:26.760Z,-1.02
2022-12-01T12:21:03.016Z,-1.14
2022-12-01T12:23:41.415Z,-0.96
2022-12-01T12:26:24.934Z,-1.32
2022-12-01T12:29:13.955Z,-1.13
2022-12-01T12:32:01.755Z,-1.24
2022-12-01T12:34:52.499Z,-1.20
2022-12-01T12:37:30.557Z,-1.11
2022-12-01T12:40:22.603Z,-1.06
2022-12-01T12:42:54.979Z,-1.17
2022-12-01T12:45:29.126Z,-1.23
2022-12-01T12:47:58.908Z,-1.24
2022-12-01T12:50:44.869Z,-1.17
2022-12-01T12:53:19.944Z,-1.33
2022-12-01T12:55:52.897Z,-1.08
2022-12-01T12:58:24.277Z,-1.23
2022-12-01T13:00:59.942Z,-1.17
2022-12-01T13:03:34.726Z,-1.03
2022-12-01T13:06:25.695Z,-1.14
2022-12-01T13:09:28.702Z,-1.29
2022-12-01T13:12:15.996Z,-1.27
2022-12-01T13:14:48.674Z,-0.95
2022-12-01T13:17:47.928Z,-0.98
2022-12-01T13:20:20.901Z,-0.95
2022-12-01T13:22:49.334Z,-0.94
2022-12-01T13:25:22.207Z,-1.19
2022-12-01T13:27:50.401Z,-1.13
2022-12-01T13:30:22.931Z,-1.38
2022-12-01T13:32:57.518Z,-1.25
2022-12-01T13:35:36.555Z,-1.12
2022-12-01T13:38:30.457Z,-1.19
2022-12-01T13:41:13.806Z,-1.10
2022-12-01T13:43:57.056Z,-1.25
2022-12-01T13:46:46.937Z,-1.36
2022-12-01T13:49:34.150Z,-1.41
2022-12-01T13:52:17.893Z,-1.41
2022-12-01T13:55:13.929Z,-1.21
2022-12-01T13:57:45.200Z,-1.30
2022-12-01T14:00:47.129Z,-1.38
2022-12-01T14:03:16.819Z,-1.27
2022-12-01T14:05:59.394Z,-1.19
2022-12-01T14:08:48.977Z,-1.39
2022-12-01T14:11:21.222Z,-1.42
2022-12-01T14:13:58.686Z,-1.31
2022-12-01T14:16:25.959Z,-1.24
2022-12-01T14:18:56.233Z,-1.32
2022-12-01T14:21:44.007Z,-1.17
2022-12-01T14:24:22.280Z,-1.20
2022-12-01T14:26:49.495Z,-1.09
2022-12-01T14:29:31.835Z,-1.00
2022-12-01T14:32:05.276Z,-1.28
2022-12-01T14:34:34.989Z,-1.34
2022-12-01T14:37:20.201Z,-1.29
2022-12-01T14:39:56.418Z,-1.10
2022-12-01T14:42:52.669Z,-1.07
2022-12-01T14:45:24.403Z,-1.39
2022-12-01T14:48:02.521Z,-1.34
2022-12-01T14:50:43.530Z,-0.96
2022-12-01T14:53:22.641Z,-0.95
2022-12-01T14:56:07.869Z,-0.80
2022-12-01T14:58:34.512Z,-1.03
2022-12-01T15:01:11.326Z,-0.97
2022-12-01T15:03:43.051Z,-1.00
2022-12-01T15:06:16.676Z,-1.00
2022-12-01T15:08:53.341Z,-0.96
2022-12-01T15:11:30.295Z,-1.11
2022-12-01T15:13:57.946Z,-1.00
2022-12-01T15:16:28.963Z,-1.06
2022-12-01T15:18:56.284Z,-1.28
2022-12-01T15:21:24.279Z,-1.00
2022-12-01T15:24:01.129Z,-1.22
2022-12-01T15:26:33.734Z,-1.02
2022-12-01T15:29:28.486Z,-1.19
2022-12-01T15:32:00.189Z,-1.09
2022-12-01T15:34:39.861Z,-1.22
2022-12-01T15:37:11.821Z,-1.27
2022-12-01T15:39:46.965Z,-1.05
2022-12-01T15:42:34.826Z,-1.15
2022-12-01T15:45:19.866Z,-1.02
2022-12-01T15:47:51.880Z,-1.24
2022-12-01T15:50:44.439Z,-1.11
2022-12-01T15:53:26.585Z,-1.21
2022-12-01T15:55:59.042Z,-0.96
2022-12-01T15:58:31.537Z,-0.93
2022-12-01T16:01:04.621Z,-1.09
2022-12-01T16:03:33.816Z,-1.20
2022-12-01T16:06:00.779Z,-1.16
2022-12-01T16:08:28.260Z,-1.17
2022-12-01T16:11:15.132Z,-1.08
2022-12-01T16:13:49.485Z,-0.97
2022-12-01T16:16:28.819Z,-1.01
2022-12-01T16:18:58.178Z,-1.10
2022-12-01T16:21:27.064Z,-1.20
2022-12-01T16:24:03.038Z,-1.26
2022-12-01T16:26:30.993Z,-1.24
2022-12-01T16:28:58.374Z,-1.16
2022-12-01T16:31:26.403Z,-1.37
2022-12-01T16:34:13.974Z,-1.23
2022-12-01T16:36:45.218Z,-1.34
2022-12-01T16:39:14.071Z,-1.50
2022-12-01T16:41:44.534Z,-1.35
2022-12-01T16:44:28.091Z,-1.42
2022-12-01T16:46:55.394Z,-1.42
2022-12-01T16:49:22.549Z,-1.59
2022-12-01T16:51:55.928Z,-1.36
2022-12-01T16:54:24.435Z,-1.42
2022-12-01T16:56:51.450Z,-1.57
2022-12-01T16:59:17.987Z,-1.56
2022-12-01T17:01:44.558Z,-1.45
2022-12-01T17:04:11.290Z,-1.49
2022-12-01T17:06:38.445Z,-1.40
2022-12-01T17:09:06.109Z,-1.48
2022-12-01T17:11:33.191Z,-1.59
2022-12-01T17:13:59.840Z,-1.57
2022-12-01T17:16:26.338Z,-1.63
2022-12-01T17:18:53.041Z,-1.54
2022-12-01T17:21:19.538Z,-1.64
2022-12-01T17:23:46.126Z,-1.77
2022-12-01T17:26:15.678Z,-1.60
2022-12-01T17:28:42.240Z,-1.76
2022-12-01T17:31:09.467Z,-1.65
2022-12-01T17:33:36.750Z,-1.69
2022-12-01T17:36:09.957Z,-1.67
2022-12-01T17:38:38.165Z,-1.58
2022-12-01T17:41:09.987Z,-1.56
2022-12-01T17:43:38.151Z,-1.70
2022-12-01T17:46:06.968Z,-1.69
2022-12-01T17:48:41.258Z,-1.74
2022-12-01T17:51:09.105Z,-1.67
2022-12-01T17:53:36.929Z,-1.65
2022-12-01T17:56:08.041Z,-1.62
2022-12-01T17:58:35.001Z,-1.46
2022-12-01T18:01:01.450Z,-1.34
2022-12-01T18:03:27.991Z,-1.60
2022-12-01T18:05:58.997Z,-1.68
2022-12-01T18:08:27.117Z,-1.56
2022-12-01T18:10:54.431Z,-1.61
2022-12-01T18:13:21.981Z,-1.47
2022-12-01T18:15:49.029Z,-1.46
2022-12-01T18:18:15.673Z,-1.46
2022-12-01T18:20:43.371Z,-1.53
2022-12-01T18:23:11.523Z,-1.47
2022-12-01T18:25:39.059Z,-1.52
2022-12-01T18:28:06.413Z,-1.49
2022-12-01T18:30:34.049Z,-1.59
2022-12-01T18:33:01.436Z,-1.52
2022-12-01T18:35:31.752Z,-1.72
2022-12-01T18:37:58.796Z,-1.55
2022-12-01T18:40:25.273Z,-1.60
2022-12-01T18:42:51.905Z,-1.50
2022-12-01T18:45:21.280Z,-1.63
2022-12-01T18:47:48.218Z,-1.67
2022-12-01T18:50:14.900Z,-1.69
2022-12-01T18:52:41.365Z,-1.56
2022-12-01T18:55:08.182Z,-1.47
2022-12-01T18:57:34.845Z,-1.50
2022-12-01T19:00:01.763Z,-1.62
2022-12-01T19:02:28.291Z,-1.49
2022-12-01T19:04:54.745Z,-1.44
2022-12-01T19:07:25.210Z,-1.43
2022-12-01T19:09:55.911Z,-1.47
2022-12-01T19:12:22.366Z,-1.36
2022-12-01T19:14:49.092Z,-1.42
2022-12-01T19:17:15.751Z,-1.37
2022-12-01T19:19:42.163Z,-1.38
2022-12-01T19:22:08.655Z,-1.39
2022-12-01T19:24:35.354Z,-1.39
2022-12-01T19:27:01.786Z,-1.35
2022-12-01T19:29:28.429Z,-1.26
2022-12-01T19:31:55.448Z,-1.53
2022-12-01T19:34:22.107Z,-1.50
2022-12-01T19:36:49.844Z,-1.40
2022-12-01T19:39:16.280Z,-1.36
2022-12-01T19:41:42.915Z,-1.40
2022-12-01T19:44:10.242Z,-1.35
2022-12-01T19:46:36.730Z,-1.31
2022-12-01T19:49:03.865Z,-1.36
2022-12-01T19:51:34.939Z,-1.29
2022-12-01T19:54:01.835Z,-1.36
2022-12-01T19:56:28.989Z,-1.40
2022-12-01T19:58:57.108Z,-1.35
2022-12-01T20:01:24.147Z,-1.39
2022-12-01T20:03:52.525Z,-1.39
2022-12-01T20:06:25.527Z,-1.22
2022-12-01T20:08:52.812Z,-1.29
2022-12-01T20:11:19.321Z,-1.23
2022-12-01T20:13:46.529Z,-1.30
2022-12-01T20:16:20.992Z,-1.26
2022-12-01T20:18:48.420Z,-1.16
2022-12-01T20:21:23.739Z,-1.44
2022-12-01T20:24:01.611Z,-1.23
2022-12-01T20:26:32.161Z,-1.45
2022-12-01T20:29:01.115Z,-1.27
2022-12-01T20:31:30.023Z,-1.30
2022-12-01T20:33:58.113Z,-1.34
2022-12-01T20:36:25.264Z,-1.26
2022-12-01T20:38:51.769Z,-1.42
2022-12-01T20:41:18.247Z,-1.46
2022-12-01T20:43:45.051Z,-1.44
2022-12-01T20:46:13.232Z,-1.45
2022-12-01T20:48:40.486Z,-1.17
2022-12-01T20:51:08.145Z,-1.13
2022-12-01T20:53:35.660Z,-1.12
2022-12-01T20:56:04.322Z,-1.15
2022-12-01T20:58:37.056Z,-1.16
2022-12-01T21:01:08.891Z,-1.03
2022-12-01T21:03:35.583Z,-0.98
2022-12-01T21:06:02.871Z,-1.15
2022-12-01T21:08:29.306Z,-1.06
2022-12-01T21:10:55.733Z,-1.11
2022-12-01T21:13:39.572Z,-1.02
2022-12-01T21:16:28.985Z,-0.91
2022-12-01T21:19:01.044Z,-0.93
2022-12-01T21:21:29.895Z,-0.93
2022-12-01T21:24:08.423Z,-0.94
2022-12-01T21:26:36.545Z,-0.91
2022-12-01T21:29:15.523Z,-0.98
2022-12-01T21:31:42.003Z,-0.99
2022-12-01T21:34:17.800Z,-0.90
2022-12-01T21:36:45.502Z,-1.11
2022-12-01T21:39:15.694Z,-1.16
2022-12-01T21:41:42.145Z,-1.04
2022-12-01T21:44:17.825Z,-1.11
2022-12-01T21:46:45.374Z,-0.92
2022-12-01T21:49:21.280Z,-0.93
2022-12-01T21:51:50.374Z,-1.03
2022-12-01T21:54:20.277Z,-1.11
2022-12-01T21:56:48.587Z,-1.00
2022-12-01T21:59:24.954Z,-1.15
2022-12-01T22:01:56.291Z,-1.22
2022-12-01T22:04:29.966Z,-1.02
2022-12-01T22:06:57.961Z,-1.09
2022-12-01T22:09:33.992Z,-0.97
2022-12-01T22:12:11.731Z,-1.02
2022-12-01T22:14:39.131Z,-0.96
2022-12-01T22:17:05.501Z,-0.92
2022-12-01T22:19:34.484Z,-0.88
2022-12-01T22:22:12.957Z,-0.82
2022-12-01T22:24:39.911Z,-0.80
2022-12-01T22:27:34.093Z,-0.93
2022-12-01T22:30:06.427Z,-0.87
2022-12-01T22:33:03.644Z,-0.70
2022-12-01T22:35:43.979Z,-0.77
2022-12-01T22:38:29.106Z,-0.70
2022-12-01T22:41:05.487Z,-0.72
2022-12-01T22:43:44.675Z,-0.72
2022-12-01T22:46:30.982Z,-0.85
2022-12-01T22:49:06.614Z,-0.67
2022-12-01T22:51:47.899Z,-0.69
2022-12-01T22:54:14.265Z,-0.83
2022-12-01T22:56:44.942Z,-0.93
2022-12-01T22:59:14.474Z,-0.81
2022-12-01T23:01:54.965Z,-0.79
2022-12-01T23:04:29.205Z,-0.72
2022-12-01T23:07:00.574Z,-0.67
2022-12-01T23:09:32.165Z,-0.79
2022-12-01T23:12:04.537Z,-1.04
2022-12-01T23:14:33.351Z,-0.87
2022-12-01T23:17:06.851Z,-0.88
2022-12-01T23:19:34.539Z,-1.09
2022-12-01T23:22:01.332Z,-0.89
2022-12-01T23:24:32.408Z,-0.85
2022-12-01T23:27:00.383Z,-0.65
2022-12-01T23:29:26.819Z,-0.96
2022-12-01T23:31:53.301Z,-0.75
2022-12-01T23:34:20.052Z,-0.74
2022-12-01T23:36:49.120Z,-0.71
2022-12-01T23:39:17.716Z,-0.65
2022-12-01T23:41:51.200Z,-0.69
2022-12-01T23:44:24.798Z,-0.76
2022-12-01T23:46:55.468Z,-0.92
2022-12-01T23:49:31.253Z,-0.76
2022-12-01T23:52:00.607Z,-0.81
2022-12-01T23:54:31.527Z,-0.78
2022-12-01T23:57:01.629Z,-0.73
2022-12-01T23:59:30.015Z,-0.51
